createdAt,value
2019-02-04T00:00:03.399Z,15.79
2019-02-04T00:01:03.558Z,15.04
2019-02-04T00:02:03.212Z,16.39
2019-02-04T00:03:02.740Z,16.01
2019-02-04T00:04:03.967Z,15.4
2019-02-04T00:05:03.560Z,15.3
2019-02-04T00:06:03.212Z,15.63
2019-02-04T00:07:02.856Z,13.83
2019-02-04T00:08:02.906Z,13.83
2019-02-04T00:09:03.598Z,13.88
2019-02-04T00:10:03.648Z,15.28
2019-02-04T00:11:03.658Z,16.44
2019-02-04T00:12:03.339Z,15.08
2019-02-04T00:13:03.510Z,15.21
2019-02-04T00:14:03.544Z,15.21
2019-02-04T00:15:03.422Z,15.14
2019-02-04T00:16:03.187Z,14.88
2019-02-04T00:17:03.157Z,14.88
2019-02-04T00:18:02.926Z,13.41
2019-02-04T00:19:02.904Z,13.41
2019-02-04T00:20:02.907Z,14.2
2019-02-04T00:21:03.316Z,15.39
2019-02-04T00:22:03.112Z,15.39
2019-02-04T00:23:03.256Z,16.21
2019-02-04T00:24:02.816Z,14.48
2019-02-04T00:25:03.550Z,15.15
2019-02-04T00:26:03.214Z,15.34
2019-02-04T00:27:02.542Z,14.82
2019-02-04T00:28:03.438Z,14.71
2019-02-04T00:29:03.669Z,15.16
2019-02-04T00:30:03.699Z,15.46
2019-02-04T00:31:05.369Z,16.77
2019-02-04T00:32:02.948Z,15.25
2019-02-04T00:33:03.213Z,15.16
2019-02-04T00:34:03.388Z,17.37
2019-02-04T00:35:03.605Z,16.32
2019-02-04T00:36:03.087Z,15.75
2019-02-04T00:37:03.627Z,15.42
2019-02-04T00:38:03.326Z,16.05
2019-02-04T00:39:03.690Z,16.51
2019-02-04T00:40:03.023Z,15.35
2019-02-04T00:41:03.238Z,17.48
2019-02-04T00:42:03.040Z,16.85
2019-02-04T00:43:03.296Z,16.06
2019-02-04T00:44:02.884Z,16.28
2019-02-04T00:45:03.215Z,16.45
2019-02-04T00:46:03.362Z,16.75
2019-02-04T00:47:02.640Z,15.89
2019-02-04T00:48:02.909Z,16.4
2019-02-04T00:49:02.948Z,16.18
2019-02-04T00:50:02.867Z,16.54
2019-02-04T00:51:03.641Z,16.05
2019-02-04T00:52:03.385Z,15.42
2019-02-04T00:53:03.247Z,17.42
2019-02-04T00:54:03.766Z,15.84
2019-02-04T00:55:03.442Z,16.73
2019-02-04T00:56:02.997Z,16.37
2019-02-04T00:57:03.150Z,15.47
2019-02-04T00:58:03.064Z,14.96
2019-02-04T00:59:03.193Z,15.03
2019-02-04T01:00:03.310Z,17.89
2019-02-04T01:01:02.898Z,17.08
2019-02-04T01:02:03.268Z,16.31
2019-02-04T01:03:03.262Z,16.91
2019-02-04T01:04:03.269Z,16.91
2019-02-04T01:05:03.570Z,16.78
2019-02-04T01:06:02.664Z,14.79
2019-02-04T01:07:02.866Z,14.79
2019-02-04T01:08:02.733Z,17.06
2019-02-04T01:09:03.147Z,17.06
2019-02-04T01:10:02.659Z,16.97
2019-02-04T01:11:03.452Z,16.09
2019-02-04T01:12:02.958Z,16.71
2019-02-04T01:13:03.663Z,16.4
2019-02-04T01:14:03.105Z,15.73
2019-02-04T01:15:03.376Z,16.61
2019-02-04T01:16:02.738Z,17.06
2019-02-04T01:17:03.930Z,14.83
2019-02-04T01:18:03.097Z,14.75
2019-02-04T01:19:03.337Z,16.21
2019-02-04T01:20:03.403Z,16.19
2019-02-04T01:21:02.676Z,17.42
2019-02-04T01:22:03.215Z,17.35
2019-02-04T01:23:03.050Z,15.69
2019-02-04T01:24:02.804Z,16.41
2019-02-04T01:25:03.032Z,15.78
2019-02-04T01:26:03.486Z,16.24
2019-02-04T01:27:03.684Z,16.28
2019-02-04T01:28:02.760Z,16.44
2019-02-04T01:29:03.338Z,16.49
2019-02-04T01:30:03.287Z,14.86
2019-02-04T01:31:02.820Z,16.74
2019-02-04T01:32:03.553Z,18.12
2019-02-04T01:33:03.592Z,15.85
2019-02-04T01:34:03.155Z,17.19
2019-02-04T01:35:03.289Z,16.48
2019-02-04T01:36:03.392Z,15.44
2019-02-04T01:37:03.120Z,15.71
2019-02-04T01:38:03.348Z,17.34
2019-02-04T01:39:03.064Z,16.71
2019-02-04T01:40:03.343Z,17.53
2019-02-04T01:41:03.513Z,17.77
2019-02-04T01:42:02.792Z,15.69
2019-02-04T01:43:02.988Z,16.81
2019-02-04T01:44:03.504Z,17.15
2019-02-04T01:45:02.861Z,17.91
2019-02-04T01:46:03.562Z,18.64
2019-02-04T01:47:15.011Z,18.26
2019-02-04T01:48:03.408Z,15.91
2019-02-04T01:49:03.202Z,17.08
2019-02-04T01:50:03.316Z,15.76
2019-02-04T01:51:02.780Z,16.55
2019-02-04T01:52:03.569Z,16.19
2019-02-04T01:53:02.795Z,16.33
2019-02-04T01:54:03.570Z,16.33
2019-02-04T01:55:03.475Z,16.09
2019-02-04T01:56:02.696Z,16.09
2019-02-04T01:57:03.838Z,17.16
2019-02-04T01:58:03.513Z,17.86
2019-02-04T01:59:03.598Z,17.86
2019-02-04T02:00:03.306Z,17.15
2019-02-04T02:01:03.183Z,15.08
2019-02-04T02:02:03.295Z,15.08
2019-02-04T02:03:03.525Z,15.39
2019-02-04T02:04:02.935Z,17.58
2019-02-04T02:05:03.843Z,16.61
2019-02-04T02:06:02.839Z,16.35
2019-02-04T02:07:03.428Z,18.51
2019-02-04T02:08:03.015Z,18.05
2019-02-04T02:09:03.445Z,17.69
2019-02-04T02:10:02.888Z,17.13
2019-02-04T02:11:03.544Z,16.89
2019-02-04T02:12:03.467Z,18.31
2019-02-04T02:13:03.668Z,18.25
2019-02-04T02:14:03.272Z,17.98
2019-02-04T02:15:03.063Z,17.22
2019-02-04T02:16:02.870Z,17.26
2019-02-04T02:17:03.472Z,17.83
2019-02-04T02:18:03.561Z,16.54
2019-02-04T02:19:03.373Z,17.76
2019-02-04T02:20:03.317Z,17.7
2019-02-04T02:21:03.962Z,16.92
2019-02-04T02:22:03.377Z,16.51
2019-02-04T02:23:02.779Z,17.72
2019-02-04T02:24:03.664Z,17.97
2019-02-04T02:25:03.149Z,18.28
2019-02-04T02:26:02.990Z,17.02
2019-02-04T02:27:02.766Z,16.47
2019-02-04T02:28:03.714Z,18.98
2019-02-04T02:29:03.145Z,17.49
2019-02-04T02:30:03.590Z,19.5
2019-02-04T02:31:03.360Z,16.72
2019-02-04T02:32:03.529Z,17.18
2019-02-04T02:33:03.077Z,17.81
2019-02-04T02:34:03.718Z,17.79
2019-02-04T02:35:02.901Z,16.6
2019-02-04T02:36:03.655Z,17.6
2019-02-04T02:37:03.246Z,16.65
2019-02-04T02:38:03.065Z,16.87
2019-02-04T02:39:04.264Z,18.29
2019-02-04T02:40:03.661Z,16.93
2019-02-04T02:41:03.768Z,18.23
2019-02-04T02:42:03.037Z,17.26
2019-02-04T02:43:03.158Z,16.58
2019-02-04T02:44:02.602Z,16.58
2019-02-04T02:45:03.013Z,17.06
2019-02-04T02:46:03.185Z,17.06
2019-02-04T02:47:02.918Z,17.63
2019-02-04T02:48:02.989Z,18.19
2019-02-04T02:49:03.350Z,18.72
2019-02-04T02:50:02.950Z,17.33
2019-02-04T02:51:03.458Z,18.39
2019-02-04T02:52:03.321Z,17.19
2019-02-04T02:53:03.290Z,16.06
2019-02-04T02:54:03.283Z,18.01
2019-02-04T02:55:03.128Z,17.18
2019-02-04T02:56:03.176Z,17.36
2019-02-04T02:57:03.861Z,16.88
2019-02-04T02:58:03.338Z,16.85
2019-02-04T02:59:02.675Z,17.1
2019-02-04T03:00:03.324Z,16.34
2019-02-04T03:01:03.330Z,19.06
2019-02-04T03:02:03.589Z,17.29
2019-02-04T03:03:03.492Z,16.05
2019-02-04T03:04:03.397Z,18.02
2019-02-04T03:05:02.859Z,17.82
2019-02-04T03:06:02.865Z,16.89
2019-02-04T03:07:02.843Z,18.59
2019-02-04T03:08:03.989Z,16.28
2019-02-04T03:09:02.864Z,17.24
2019-02-04T03:10:02.998Z,16.71
2019-02-04T03:11:02.717Z,18.45
2019-02-04T03:12:03.136Z,16.76
2019-02-04T03:13:03.058Z,16.91
2019-02-04T03:14:02.913Z,17.07
2019-02-04T03:15:03.414Z,18.15
2019-02-04T03:16:03.684Z,18.02
2019-02-04T03:17:03.675Z,18.06
2019-02-04T03:18:02.535Z,16.95
2019-02-04T03:19:02.915Z,16.97
2019-02-04T03:20:03.379Z,18.16
2019-02-04T03:21:03.098Z,16.28
2019-02-04T03:22:03.752Z,17.68
2019-02-04T03:23:02.684Z,17.76
2019-02-04T03:24:03.403Z,17.76
2019-02-04T03:25:02.998Z,16.52
2019-02-04T03:26:02.932Z,17.48
2019-02-04T03:27:02.803Z,18.14
2019-02-04T03:28:03.098Z,18.09
2019-02-04T03:29:03.075Z,17.68
2019-02-04T03:30:03.374Z,19.68
2019-02-04T03:31:02.705Z,19.68
2019-02-04T03:32:02.984Z,17.9
2019-02-04T03:33:04.009Z,17.9
2019-02-04T03:34:03.578Z,17.51
2019-02-04T03:35:02.867Z,18.83
2019-02-04T03:36:03.166Z,18.83
2019-02-04T03:37:03.683Z,18.32
2019-02-04T03:38:02.894Z,17.3
2019-02-04T03:39:03.178Z,16.2
2019-02-04T03:40:03.777Z,16.84
2019-02-04T03:41:03.485Z,17.62
2019-02-04T03:42:03.696Z,18.38
2019-02-04T03:43:02.927Z,17.91
2019-02-04T03:44:02.590Z,19.29
2019-02-04T03:45:02.888Z,18.17
2019-02-04T03:46:03.523Z,17.63
2019-02-04T03:47:03.576Z,19.04
2019-02-04T03:48:08.733Z,17.45
2019-02-04T03:49:02.658Z,19.54
2019-02-04T03:50:03.057Z,19.32
2019-02-04T03:51:03.087Z,19.68
2019-02-04T03:52:03.051Z,19.39
2019-02-04T03:53:03.252Z,19.22
2019-02-04T03:54:03.560Z,23.34
2019-02-04T03:55:04.075Z,21.45
2019-02-04T03:56:03.499Z,21.6
2019-02-04T03:57:02.785Z,20.21
2019-02-04T03:58:02.762Z,20.36
2019-02-04T03:59:03.561Z,19.69
2019-02-04T04:00:03.036Z,25.66
2019-02-04T04:01:03.675Z,31.9
2019-02-04T04:02:02.912Z,40.75
2019-02-04T04:03:03.095Z,30.22
2019-02-04T04:04:03.349Z,27.56
2019-02-04T04:05:03.355Z,26.06
2019-02-04T04:06:02.919Z,30.41
2019-02-04T04:07:03.348Z,30.05
2019-02-04T04:08:03.649Z,28.65
2019-02-04T04:09:03.038Z,26.15
2019-02-04T04:10:03.326Z,23.54
2019-02-04T04:11:02.634Z,20.74
2019-02-04T04:12:03.497Z,26.52
2019-02-04T04:13:03.042Z,23.35
2019-02-04T04:14:03.148Z,26.85
2019-02-04T04:15:02.568Z,27.88
2019-02-04T04:16:03.575Z,23.67
2019-02-04T04:17:03.590Z,25.26
2019-02-04T04:18:02.822Z,21.61
2019-02-04T04:19:03.423Z,21.75
2019-02-04T04:20:02.845Z,20.23
2019-02-04T04:21:03.223Z,20.23
2019-02-04T04:22:02.896Z,21.68
2019-02-04T04:23:02.795Z,19.51
2019-02-04T04:24:03.069Z,19.51
2019-02-04T04:25:03.754Z,20.94
2019-02-04T04:26:02.909Z,19.38
2019-02-04T04:27:03.013Z,19.38
2019-02-04T04:28:03.096Z,18.68
2019-02-04T04:29:02.951Z,19.49
2019-02-04T04:30:03.008Z,22.97
2019-02-04T04:31:03.474Z,20.4
2019-02-04T04:32:03.565Z,19.42
2019-02-04T04:33:02.713Z,21.12
2019-02-04T04:34:02.811Z,19.42
2019-02-04T04:35:03.781Z,19.41
2019-02-04T04:36:02.886Z,20.7
2019-02-04T04:37:03.282Z,20.44
2019-02-04T04:38:02.745Z,20.95
2019-02-04T04:39:03.142Z,19.68
2019-02-04T04:40:03.241Z,20.79
2019-02-04T04:41:03.747Z,21.29
2019-02-04T04:42:02.976Z,21.54
2019-02-04T04:43:03.935Z,23.78
2019-02-04T04:44:03.324Z,21.68
2019-02-04T04:45:03.405Z,19.47
2019-02-04T04:46:02.745Z,22.56
2019-02-04T04:47:03.634Z,21.22
2019-02-04T04:48:02.900Z,20.83
2019-02-04T04:49:03.065Z,20.38
2019-02-04T04:50:02.952Z,20.25
2019-02-04T04:51:03.812Z,20.25
2019-02-04T04:52:03.190Z,22.36
2019-02-04T04:53:03.443Z,20.8
2019-02-04T04:54:02.918Z,19.54
2019-02-04T04:55:03.558Z,23.01
2019-02-04T04:56:03.299Z,19.65
2019-02-04T04:57:02.976Z,21.21
2019-02-04T04:58:02.745Z,19.38
2019-02-04T04:59:03.367Z,19.1
2019-02-04T05:00:02.695Z,19.51
2019-02-04T05:01:03.195Z,18.84
2019-02-04T05:02:03.262Z,19.41
2019-02-04T05:03:02.839Z,20.35
2019-02-04T05:04:02.846Z,19.82
2019-02-04T05:05:02.894Z,20.46
2019-02-04T05:06:03.424Z,19.81
2019-02-04T05:07:03.137Z,19.14
2019-02-04T05:08:03.141Z,20.08
2019-02-04T05:09:03.559Z,20.08
2019-02-04T05:10:03.678Z,19.63
2019-02-04T05:11:03.414Z,21.04
2019-02-04T05:12:03.356Z,19.53
2019-02-04T05:13:03.091Z,20.36
2019-02-04T05:14:03.146Z,20.36
2019-02-04T05:15:02.744Z,22.61
2019-02-04T05:16:03.698Z,22.61
2019-02-04T05:17:02.805Z,19.56
2019-02-04T05:18:02.980Z,19.85
2019-02-04T05:19:02.681Z,22.28
2019-02-04T05:20:03.376Z,21.65
2019-02-04T05:21:03.196Z,19.62
2019-02-04T05:22:03.183Z,22.13
2019-02-04T05:23:03.003Z,21.44
2019-02-04T05:24:02.884Z,20.68
2019-02-04T05:25:02.911Z,20.78
2019-02-04T05:26:03.748Z,19.19
2019-02-04T05:27:03.244Z,19.91
2019-02-04T05:28:02.892Z,19.93
2019-02-04T05:29:02.862Z,20.76
2019-02-04T05:30:03.191Z,21.66
2019-02-04T05:31:02.796Z,19.66
2019-02-04T05:32:03.889Z,21.78
2019-02-04T05:33:02.960Z,20.15
2019-02-04T05:34:03.196Z,21.84
2019-02-04T05:35:03.566Z,22.77
2019-02-04T05:36:02.780Z,21.04
2019-02-04T05:37:03.086Z,24.44
2019-02-04T05:38:03.065Z,22.88
2019-02-04T05:39:03.024Z,23.49
2019-02-04T05:40:03.160Z,23.56
2019-02-04T05:41:02.751Z,21.68
2019-02-04T05:42:02.821Z,22.94
2019-02-04T05:43:03.589Z,20.81
2019-02-04T05:44:03.487Z,22.12
2019-02-04T05:45:03.066Z,22.09
2019-02-04T05:46:03.353Z,22.35
2019-02-04T05:47:03.588Z,21.85
2019-02-04T05:48:03.361Z,21.86
2019-02-04T05:49:03.543Z,19.36
2019-02-04T05:50:03.510Z,20.97
2019-02-04T05:51:03.593Z,19.9
2019-02-04T05:52:03.104Z,21.64
2019-02-04T05:53:03.257Z,21.15
2019-02-04T05:54:03.346Z,20.99
2019-02-04T05:55:03.465Z,20.04
2019-02-04T05:56:02.792Z,21.28
2019-02-04T05:57:02.941Z,22.45
2019-02-04T05:58:03.615Z,20.1
2019-02-04T05:59:02.906Z,22.09
2019-02-04T06:00:03.291Z,20.64
2019-02-04T06:01:02.919Z,22.42
2019-02-04T06:02:03.382Z,22.42
2019-02-04T06:03:03.433Z,20.52
2019-02-04T06:04:03.363Z,20.52
2019-02-04T06:05:03.405Z,20.35
2019-02-04T06:06:03.020Z,21.71
2019-02-04T06:07:03.401Z,22.3
2019-02-04T06:08:03.618Z,21.02
2019-02-04T06:09:02.797Z,22.05
2019-02-04T06:10:03.863Z,21.16
2019-02-04T06:11:02.978Z,22.44
2019-02-04T06:12:02.956Z,21.44
2019-02-04T06:13:02.888Z,23.25
2019-02-04T06:14:03.528Z,20.21
2019-02-04T06:15:03.393Z,22.55
2019-02-04T06:16:02.956Z,20.61
2019-02-04T06:17:03.607Z,22.56
2019-02-04T06:18:03.080Z,19.95
2019-02-04T06:19:02.811Z,20.25
2019-02-04T06:20:03.353Z,21.97
2019-02-04T06:21:03.556Z,21.12
2019-02-04T06:22:03.457Z,22.11
2019-02-04T06:23:03.591Z,21.55
2019-02-04T06:24:03.509Z,22.19
2019-02-04T06:25:03.544Z,21.18
2019-02-04T06:26:02.879Z,21.36
2019-02-04T06:27:03.194Z,21.52
2019-02-04T06:28:03.559Z,19.35
2019-02-04T06:29:02.937Z,20.11
2019-02-04T06:30:03.696Z,19.1
2019-02-04T06:31:03.566Z,18.06
2019-02-04T06:32:02.767Z,19.72
2019-02-04T06:33:03.138Z,19.33
2019-02-04T06:34:03.257Z,19.82
2019-02-04T06:35:02.639Z,18.88
2019-02-04T06:36:03.639Z,19.09
2019-02-04T06:37:03.688Z,18.71
2019-02-04T06:38:02.743Z,20.77
2019-02-04T06:39:02.601Z,20.21
2019-02-04T06:40:02.939Z,16.89
2019-02-04T06:41:03.211Z,19.24
2019-02-04T06:42:02.871Z,19.26
2019-02-04T06:43:03.452Z,19.19
2019-02-04T06:44:03.661Z,18.7
2019-02-04T06:45:02.977Z,19.8
2019-02-04T06:46:02.890Z,21.44
2019-02-04T06:47:03.713Z,22.28
2019-02-04T06:48:03.567Z,22.14
2019-02-04T06:49:12.739Z,21.74
2019-02-04T06:50:03.118Z,20.55
2019-02-04T06:51:03.093Z,20.88
2019-02-04T06:52:03.587Z,22.29
2019-02-04T06:53:02.948Z,21.56
2019-02-04T06:54:02.930Z,21.56
2019-02-04T06:55:03.021Z,23.45
2019-02-04T06:56:02.903Z,23.62
2019-02-04T06:57:03.051Z,21.05
2019-02-04T06:58:02.792Z,21.75
2019-02-04T06:59:03.756Z,22.59
2019-02-04T07:00:03.102Z,24.63
2019-02-04T07:01:02.905Z,23.98
2019-02-04T07:02:02.732Z,22.95
2019-02-04T07:03:02.701Z,22.51
2019-02-04T07:04:03.588Z,22.29
2019-02-04T07:05:02.677Z,21.06
2019-02-04T07:06:03.653Z,23.86
2019-02-04T07:07:03.652Z,22.02
2019-02-04T07:08:03.412Z,22.26
2019-02-04T07:09:02.921Z,22.32
2019-02-04T07:10:03.212Z,22.6
2019-02-04T07:11:02.745Z,21.49
2019-02-04T07:12:03.900Z,20.02
2019-02-04T07:13:03.726Z,21.18
2019-02-04T07:14:03.665Z,22
2019-02-04T07:15:03.452Z,21.88
2019-02-04T07:16:03.513Z,20.62
2019-02-04T07:17:03.233Z,18.38
2019-02-04T07:18:03.267Z,19.44
2019-02-04T07:19:02.865Z,17.98
2019-02-04T07:20:03.501Z,18.99
2019-02-04T07:21:03.299Z,18.76
2019-02-04T07:22:02.870Z,20.02
2019-02-04T07:23:03.498Z,18.54
2019-02-04T07:24:03.481Z,15.92
2019-02-04T07:25:03.271Z,15.96
2019-02-04T07:26:03.543Z,16.82
2019-02-04T07:27:03.185Z,17.87
2019-02-04T07:28:04.113Z,17.94
2019-02-04T07:29:02.954Z,17.38
2019-02-04T07:30:03.252Z,17.9
2019-02-04T07:31:02.751Z,16.27
2019-02-04T07:32:03.019Z,18.09
2019-02-04T07:33:02.799Z,18.29
2019-02-04T07:34:03.781Z,19.38
2019-02-04T07:35:03.558Z,17.35
2019-02-04T07:36:03.725Z,17.95
2019-02-04T07:37:03.205Z,18.38
2019-02-04T07:38:03.051Z,17.68
2019-02-04T07:39:02.655Z,17.68
2019-02-04T07:40:03.450Z,18.62
2019-02-04T07:41:03.251Z,18.32
2019-02-04T07:42:03.405Z,18.32
2019-02-04T07:43:03.648Z,16.85
2019-02-04T07:44:02.897Z,16.85
2019-02-04T07:45:03.445Z,17.22
2019-02-04T07:46:02.824Z,14.68
2019-02-04T07:47:03.018Z,14.06
2019-02-04T07:48:03.463Z,15.79
2019-02-04T07:49:02.966Z,14.86
2019-02-04T07:50:04.038Z,15.88
2019-02-04T07:51:03.383Z,16.15
2019-02-04T07:52:02.703Z,15.32
2019-02-04T07:53:03.359Z,14
2019-02-04T07:54:03.471Z,12.87
2019-02-04T07:55:02.902Z,12.98
2019-02-04T07:56:03.177Z,11.68
2019-02-04T07:57:02.942Z,12.02
2019-02-04T07:58:02.751Z,13.64
2019-02-04T07:59:03.865Z,12.52
2019-02-04T08:00:03.183Z,13.74
2019-02-04T08:01:03.288Z,13.89
2019-02-04T08:02:02.785Z,14.27
2019-02-04T08:03:03.437Z,17.94
2019-02-04T08:04:02.875Z,13.52
2019-02-04T08:05:03.633Z,12.61
2019-02-04T08:06:03.706Z,12.26
2019-02-04T08:07:03.375Z,12.29
2019-02-04T08:08:03.446Z,13.91
2019-02-04T08:09:03.175Z,13.13
2019-02-04T08:10:02.868Z,13.88
2019-02-04T08:11:03.274Z,13.58
2019-02-04T08:12:03.607Z,12.74
2019-02-04T08:13:03.207Z,12.48
2019-02-04T08:14:03.056Z,12.74
2019-02-04T08:15:03.580Z,13.14
2019-02-04T08:16:03.217Z,15.32
2019-02-04T08:17:02.987Z,14.25
2019-02-04T08:18:02.958Z,16.49
2019-02-04T08:19:02.852Z,14.34
2019-02-04T08:20:03.160Z,17.05
2019-02-04T08:21:03.698Z,15.79
2019-02-04T08:22:03.566Z,15.84
2019-02-04T08:23:03.670Z,13.51
2019-02-04T08:24:03.133Z,16.57
2019-02-04T08:25:03.185Z,13.78
2019-02-04T08:26:03.381Z,14.95
2019-02-04T08:27:03.121Z,14.19
2019-02-04T08:28:03.702Z,14.69
2019-02-04T08:29:02.928Z,13.48
2019-02-04T08:30:03.261Z,14.33
2019-02-04T08:31:03.229Z,14.33
2019-02-04T08:32:02.781Z,15.36
2019-02-04T08:33:02.692Z,15.36
2019-02-04T08:34:02.928Z,15.57
2019-02-04T08:35:03.323Z,15.64
2019-02-04T08:36:03.683Z,14.63
2019-02-04T08:37:03.099Z,15.24
2019-02-04T08:38:03.638Z,16.73
2019-02-04T08:39:02.859Z,16.21
2019-02-04T08:40:03.185Z,17.99
2019-02-04T08:41:03.203Z,17.62
2019-02-04T08:42:02.765Z,17.62
2019-02-04T08:43:03.329Z,17.62
2019-02-04T08:44:02.666Z,17.35
2019-02-04T08:45:03.160Z,18.94
2019-02-04T08:46:03.794Z,18.46
2019-02-04T08:47:03.234Z,18.55
2019-02-04T08:48:02.913Z,18.41
2019-02-04T08:49:03.535Z,18.02
2019-02-04T08:50:02.892Z,16.58
2019-02-04T08:51:03.257Z,19.46
2019-02-04T08:52:02.994Z,17.32
2019-02-04T08:53:03.690Z,16.26
2019-02-04T08:54:03.384Z,14.98
2019-02-04T08:55:03.627Z,15.09
2019-02-04T08:56:03.085Z,15.44
2019-02-04T08:57:02.921Z,16.08
2019-02-04T08:58:03.605Z,17.59
2019-02-04T08:59:02.796Z,17.38
2019-02-04T09:00:03.938Z,16.76
2019-02-04T09:01:02.804Z,16.33
2019-02-04T09:02:03.583Z,13.86
2019-02-04T09:03:02.711Z,14.78
2019-02-04T09:04:02.884Z,13.48
2019-02-04T09:05:03.560Z,12.33
2019-02-04T09:06:03.543Z,12.96
2019-02-04T09:07:02.884Z,12.01
2019-02-04T09:08:03.372Z,12.82
2019-02-04T09:09:03.598Z,14.33
2019-02-04T09:10:03.094Z,13.75
2019-02-04T09:11:03.009Z,15.37
2019-02-04T09:12:03.569Z,14.64
2019-02-04T09:13:02.859Z,14.04
2019-02-04T09:14:03.177Z,15.18
2019-02-04T09:15:03.408Z,14.48
2019-02-04T09:16:03.252Z,16.61
2019-02-04T09:17:03.294Z,15.34
2019-02-04T09:18:03.103Z,15.48
2019-02-04T09:19:03.092Z,15.48
2019-02-04T09:20:10.544Z,16.97
2019-02-04T09:21:02.915Z,15.22
2019-02-04T09:22:03.026Z,15.22
2019-02-04T09:23:05.961Z,15.85
2019-02-04T09:24:02.888Z,15.78
2019-02-04T09:25:02.674Z,17.32
2019-02-04T09:26:03.176Z,18.04
2019-02-04T09:27:02.648Z,18.39
2019-02-04T09:28:03.383Z,17.77
2019-02-04T09:29:03.588Z,18.98
2019-02-04T09:30:03.507Z,16.71
2019-02-04T09:31:03.049Z,18.45
2019-02-04T09:32:03.215Z,18.01
2019-02-04T09:33:03.529Z,20.35
2019-02-04T09:34:03.405Z,17.58
2019-02-04T09:35:02.810Z,18.69
2019-02-04T09:36:03.370Z,17.73
2019-02-04T09:37:03.085Z,20.85
2019-02-04T09:38:03.286Z,19.38
2019-02-04T09:39:02.977Z,20.72
2019-02-04T09:40:03.700Z,19.89
2019-02-04T09:41:03.547Z,20.18
2019-02-04T09:42:02.611Z,19.28
2019-02-04T09:43:03.674Z,20.72
2019-02-04T09:44:02.904Z,19.45
2019-02-04T09:45:02.788Z,18.29
2019-02-04T09:46:03.571Z,18.59
2019-02-04T09:47:04.189Z,18.23
2019-02-04T09:48:03.137Z,17.16
2019-02-04T09:49:02.948Z,17.63
2019-02-04T09:50:03.136Z,16.16
2019-02-04T09:51:03.763Z,17.39
2019-02-04T09:52:03.455Z,17.28
2019-02-04T09:53:03.587Z,17.04
2019-02-04T09:54:02.921Z,17.97
2019-02-04T09:55:02.946Z,18.38
2019-02-04T09:56:03.563Z,17.74
2019-02-04T09:57:03.129Z,16.36
2019-02-04T09:58:03.671Z,17.72
2019-02-04T09:59:03.305Z,18.2
2019-02-04T10:00:03.399Z,17.88
2019-02-04T10:01:04.595Z,17.36
2019-02-04T10:02:03.050Z,16.65
2019-02-04T10:03:03.188Z,16.88
2019-02-04T10:04:02.981Z,16.14
2019-02-04T10:05:03.387Z,17.29
2019-02-04T10:06:03.028Z,16.36
2019-02-04T10:07:03.297Z,16.36
2019-02-04T10:08:02.865Z,17.39
2019-02-04T10:09:03.187Z,17.61
2019-02-04T10:10:03.350Z,15.52
2019-02-04T10:11:03.289Z,16.14
2019-02-04T10:12:02.982Z,17.42
2019-02-04T10:13:03.181Z,16.97
2019-02-04T10:14:02.903Z,16.97
2019-02-04T10:15:03.597Z,17.49
2019-02-04T10:16:02.825Z,17.21
2019-02-04T10:17:03.756Z,17.21
2019-02-04T10:18:03.529Z,16.93
2019-02-04T10:19:03.220Z,17.55
2019-02-04T10:20:03.470Z,17.55
2019-02-04T10:21:03.565Z,16.96
2019-02-04T10:22:03.356Z,16.81
2019-02-04T10:23:03.550Z,16.18
2019-02-04T10:24:03.081Z,18.46
2019-02-04T10:25:03.520Z,17.3
2019-02-04T10:26:02.806Z,17.86
2019-02-04T10:27:02.846Z,18.41
2019-02-04T10:28:03.606Z,16.76
2019-02-04T10:29:02.944Z,17.07
2019-02-04T10:30:03.349Z,17.34
2019-02-04T10:31:03.157Z,16.91
2019-02-04T10:32:03.513Z,17.26
2019-02-04T10:33:03.041Z,16.41
2019-02-04T10:34:03.418Z,17.07
2019-02-04T10:35:03.517Z,16.68
2019-02-04T10:36:03.084Z,16.25
2019-02-04T10:37:03.183Z,17.2
2019-02-04T10:38:03.562Z,18.89
2019-02-04T10:39:02.963Z,16.34
2019-02-04T10:40:02.920Z,17.79
2019-02-04T10:41:03.747Z,17.95
2019-02-04T10:42:03.722Z,17.99
2019-02-04T10:43:03.371Z,15.95
2019-02-04T10:44:02.982Z,16.69
2019-02-04T10:45:03.405Z,15.82
2019-02-04T10:46:05.135Z,16.09
2019-02-04T10:47:03.195Z,15.85
2019-02-04T10:48:03.200Z,16.86
2019-02-04T10:49:04.042Z,16.75
2019-02-04T10:50:03.521Z,15.69
2019-02-04T10:51:03.102Z,16.18
2019-02-04T10:52:03.444Z,17.21
2019-02-04T10:53:03.293Z,14.72
2019-02-04T10:54:03.183Z,15.26
2019-02-04T10:55:03.069Z,14.98
2019-02-04T10:56:03.669Z,15.95
2019-02-04T10:57:03.245Z,16.08
2019-02-04T10:58:03.183Z,15.61
2019-02-04T10:59:02.689Z,16.29
2019-02-04T11:00:03.844Z,17.23
2019-02-04T11:01:02.981Z,16.04
2019-02-04T11:02:03.692Z,16.04
2019-02-04T11:03:03.457Z,17.13
2019-02-04T11:04:02.945Z,17.02
2019-02-04T11:05:03.269Z,17.02
2019-02-04T11:06:03.160Z,18.04
2019-02-04T11:07:02.907Z,17.68
2019-02-04T11:08:03.307Z,17.53
2019-02-04T11:09:03.426Z,16.99
2019-02-04T11:10:03.419Z,18.71
2019-02-04T11:11:03.054Z,17.56
2019-02-04T11:12:03.274Z,17.69
2019-02-04T11:13:03.422Z,18.78
2019-02-04T11:14:02.815Z,17.14
2019-02-04T11:15:02.634Z,19.19
2019-02-04T11:16:03.579Z,17.46
2019-02-04T11:17:02.962Z,18.85
2019-02-04T11:18:02.940Z,19.32
2019-02-04T11:19:03.437Z,20.51
2019-02-04T11:20:03.459Z,18.78
2019-02-04T11:21:03.103Z,18.35
2019-02-04T11:22:03.498Z,20.55
2019-02-04T11:23:03.548Z,19.56
2019-02-04T11:24:03.252Z,18.44
2019-02-04T11:25:03.384Z,19.45
2019-02-04T11:26:03.541Z,19.86
2019-02-04T11:27:03.659Z,20.07
2019-02-04T11:28:02.955Z,21.13
2019-02-04T11:29:02.973Z,20.19
2019-02-04T11:30:03.708Z,19.78
2019-02-04T11:31:03.073Z,19.95
2019-02-04T11:32:02.819Z,19.92
2019-02-04T11:33:03.585Z,19.76
2019-02-04T11:34:02.794Z,21.45
2019-02-04T11:35:03.481Z,19.52
2019-02-04T11:36:03.279Z,21.41
2019-02-04T11:37:03.445Z,21.72
2019-02-04T11:38:03.292Z,19.56
2019-02-04T11:39:03.039Z,18.03
2019-02-04T11:40:03.403Z,21.69
2019-02-04T11:41:02.814Z,21.79
2019-02-04T11:42:03.085Z,21.79
2019-02-04T11:43:03.139Z,19.63
2019-02-04T11:44:03.579Z,22.72
2019-02-04T11:45:03.332Z,20.42
2019-02-04T11:46:03.261Z,19.75
2019-02-04T11:47:03.529Z,19.75
2019-02-04T11:48:03.314Z,20.38
2019-02-04T11:49:03.466Z,19.89
2019-02-04T11:50:02.777Z,21.31
2019-02-04T11:51:10.131Z,21.31
2019-02-04T11:52:03.611Z,21.71
2019-02-04T11:53:03.594Z,21.86
2019-02-04T11:54:02.998Z,21.86
2019-02-04T11:55:03.423Z,21.07
2019-02-04T11:56:03.192Z,21.82
2019-02-04T11:57:03.258Z,19.34
2019-02-04T11:58:03.494Z,21.15
2019-02-04T11:59:03.221Z,20.46
2019-02-04T12:00:03.629Z,20.75
2019-02-04T12:01:03.313Z,22.03
2019-02-04T12:02:02.972Z,21.14
2019-02-04T12:03:02.944Z,22.04
2019-02-04T12:04:03.022Z,22.78
2019-02-04T12:05:03.464Z,20.91
2019-02-04T12:06:03.647Z,21.11
2019-02-04T12:07:03.730Z,20.76
2019-02-04T12:08:03.293Z,20.49
2019-02-04T12:09:03.507Z,17.98
2019-02-04T12:10:02.791Z,18.28
2019-02-04T12:11:03.551Z,18.71
2019-02-04T12:12:03.211Z,16.6
2019-02-04T12:13:03.142Z,16.55
2019-02-04T12:14:02.801Z,16.99
2019-02-04T12:15:03.250Z,18.62
2019-02-04T12:16:03.233Z,18.62
2019-02-04T12:17:03.588Z,17.71
2019-02-04T12:18:03.061Z,17.54
2019-02-04T12:19:03.392Z,17.36
2019-02-04T12:20:03.429Z,16.26
2019-02-04T12:21:03.226Z,16.74
2019-02-04T12:22:03.574Z,15.82
2019-02-04T12:23:02.915Z,17.28
2019-02-04T12:24:02.674Z,17.25
2019-02-04T12:25:03.204Z,18.49
2019-02-04T12:26:02.848Z,18.33
2019-02-04T12:27:03.372Z,19.14
2019-02-04T12:28:02.825Z,17.03
2019-02-04T12:29:02.939Z,16.27
2019-02-04T12:30:03.391Z,15.67
2019-02-04T12:31:03.218Z,14.76
2019-02-04T12:32:04.166Z,16.33
2019-02-04T12:33:03.388Z,15.86
2019-02-04T12:34:02.830Z,15.13
2019-02-04T12:35:03.193Z,16.42
2019-02-04T12:36:02.716Z,17.39
2019-02-04T12:37:03.702Z,15.7
2019-02-04T12:38:03.931Z,16.15
2019-02-04T12:39:03.149Z,16.15
2019-02-04T12:40:03.702Z,15.84
2019-02-04T12:41:03.437Z,15.11
2019-02-04T12:42:02.550Z,15.11
2019-02-04T12:43:03.170Z,13.88
2019-02-04T12:44:03.233Z,14.94
2019-02-04T12:45:03.199Z,17.3
2019-02-04T12:46:03.591Z,16.08
2019-02-04T12:47:02.850Z,16.57
2019-02-04T12:48:02.748Z,16.09
2019-02-04T12:49:03.298Z,17.8
2019-02-04T12:50:03.689Z,16.84
2019-02-04T12:51:02.756Z,16.33
2019-02-04T12:52:03.709Z,16.82
2019-02-04T12:53:03.424Z,15.38
2019-02-04T12:54:03.567Z,18.59